Estación Meteorológica Peña el Pijo (Robertgarden) [ 02/03/23 04:35:43 CET ]

Fecha Hora Presion(HPa) Temp (°C) Humedad % Rocio (°C) Viento ( m/s) Direccion Lluvia 1Hora(mm) Lluvia 24H(mm) LLuvia Total(mm)
2010-Mar-03 01:01:15 999.100 3.8 93 2.8       8.28 92.20
2010-Mar-03 02:10:05 998.600 4.1 94 3.2       8.28 92.20
2010-Mar-03 03:03:15 998.800 4.5 94 3.6       8.28 92.20
2010-Mar-03 04:01:13 998.400 4.4 94 3.5       8.28 92.20
2010-Mar-03 05:01:12 997.700 5.2 94 4.3     0.51 8.80 92.72
2010-Mar-03 06:01:18 998.300 5.0 92 3.8       8.80 92.72
2010-Mar-03 07:01:15 998.500 5.2 93 4.2       8.80 92.72
2010-Mar-03 08:01:12 998.600 5.6 90 4.1       8.80 92.72
2010-Mar-03 09:01:14 999.500 6.6 86 4.4     0.51 9.32 93.24
2010-Mar-03 10:01:14 1000.500 8.1 79 4.7       9.32 93.24
2010-Mar-03 11:01:23 1000.500 9.4 73 4.8 2.5 S   9.32 93.24
2010-Mar-03 12:01:17 1001.100 11.8 62 4.7       9.32 93.24
2010-Mar-03 13:01:17 1000.700 12.9 52 3.2       9.32 93.24
2010-Mar-03 14:01:14 1000.400 12.6 54 3.5       9.32 93.24
2010-Mar-03 15:01:13 1000.400 10.8 59 3.1       9.32 93.24
2010-Mar-03 16:01:19 1000.200 11.1 56 2.6       6.73 93.24
2010-Mar-03 17:01:13 1000.200 12.3 52 2.7       4.66 93.24
2010-Mar-03 18:01:12 1000.400 10.5 58 2.5       4.14 93.24
2010-Mar-03 19:01:16 1001.200 8.8 64 2.3       2.07 93.24
2010-Mar-03 20:01:11 1001.500 8.1 70 3.0       1.03 93.24
2010-Mar-03 21:01:13 1001.400 7.8 72 3.1       1.03 93.24
2010-Mar-03 22:01:12 1001.700 7.2 73 2.7       1.03 93.24
2010-Mar-03 23:01:12 1001.700 6.4 80 3.2       1.03 93.24

Temperatura Máxima:12°    Temperatura Mínima:
Presión Máxima:1001.700 Hpa    Presión Mínima:997.700 Hpa


Volver